SAS084 EFHK-LBSF
Flight info
| Callsign | SAS084 |
|---|---|
| Flight time | 2h 28m |
| Altitude | 36000 |
| Route | KOIVU Y123 LARTI DCT LUTAL DCT BERIL/N0437F350 DCT BOKSU/N0437F360 DCT TOXAR DCT ROBTU/N0431F370 DCT BADOR DCT OSTOV DCT BESLI M748 GOL |
| Aircraft | A320/M-SDE3FGHIRWY/LB1 |
Departure
| Time | 2026-04-26 13:26 |
|---|---|
| Airport | Helsinki Vantaa Airport (EFHK) |
Arrival
| Time | 2026-04-26 15:54 |
|---|---|
| Airport | Sofia Airport (LBSF) |
| Time | Latitude | Longitude | Altitude | Speed | Heading |
|---|---|---|---|---|---|
| 2026-04-26 12:33 | 60.31548 | 24.95819 | 162 ft | 0 kts | 137° |
| 2026-04-26 12:42 | 60.31548 | 24.95818 | 162 ft | 0 kts | 137° |
| 2026-04-26 12:54 | 60.31549 | 24.95818 | 161 ft | 0 kts | 137° |
| 2026-04-26 13:09 | 60.31560 | 24.95796 | 161 ft | 4 kts | 133° |
| 2026-04-26 13:09 | 60.31578 | 24.95754 | 161 ft | 4 kts | 123° |
| 2026-04-26 13:09 | 60.31590 | 24.95707 | 161 ft | 4 kts | 104° |
| 2026-04-26 13:10 | 60.31591 | 24.95659 | 161 ft | 4 kts | 54° |
| 2026-04-26 13:10 | 60.31588 | 24.95652 | 161 ft | 2 kts | 46° |
| 2026-04-26 13:12 | 60.31588 | 24.95651 | 161 ft | 0 kts | 46° |
| 2026-04-26 13:16 | 60.31598 | 24.95664 | 161 ft | 3 kts | 23° |
| 2026-04-26 13:16 | 60.31616 | 24.95673 | 161 ft | 0 kts | 13° |
| 2026-04-26 13:17 | 60.31624 | 24.95674 | 161 ft | 2 kts | 6° |
| 2026-04-26 13:17 | 60.31641 | 24.95656 | 161 ft | 4 kts | 321° |
| 2026-04-26 13:18 | 60.31701 | 24.95550 | 161 ft | 7 kts | 328° |
| 2026-04-26 13:18 | 60.31750 | 24.95572 | 161 ft | 9 kts | 40° |
| 2026-04-26 13:18 | 60.31856 | 24.95793 | 161 ft | 13 kts | 46° |
| 2026-04-26 13:19 | 60.31921 | 24.95943 | 161 ft | 15 kts | 49° |
| 2026-04-26 13:19 | 60.31994 | 24.96105 | 161 ft | 16 kts | 47° |
| 2026-04-26 13:19 | 60.32077 | 24.96283 | 161 ft | 18 kts | 46° |
| 2026-04-26 13:19 | 60.32153 | 24.96452 | 161 ft | 17 kts | 48° |
| 2026-04-26 13:20 | 60.32226 | 24.96614 | 161 ft | 11 kts | 48° |
| 2026-04-26 13:20 | 60.32268 | 24.96708 | 161 ft | 9 kts | 47° |
| 2026-04-26 13:20 | 60.32298 | 24.96829 | 161 ft | 11 kts | 103° |
| 2026-04-26 13:20 | 60.32231 | 24.96927 | 161 ft | 13 kts | 152° |
| 2026-04-26 13:21 | 60.32142 | 24.97023 | 161 ft | 16 kts | 154° |
| 2026-04-26 13:21 | 60.32074 | 24.97091 | 160 ft | 17 kts | 154° |
| 2026-04-26 13:21 | 60.31921 | 24.97246 | 161 ft | 20 kts | 153° |
| 2026-04-26 13:21 | 60.31794 | 24.97381 | 161 ft | 21 kts | 152° |
| 2026-04-26 13:22 | 60.31657 | 24.97523 | 161 ft | 21 kts | 154° |
| 2026-04-26 13:22 | 60.31563 | 24.97617 | 161 ft | 12 kts | 153° |
| 2026-04-26 13:22 | 60.31487 | 24.97695 | 161 ft | 12 kts | 153° |
| 2026-04-26 13:22 | 60.31406 | 24.97779 | 161 ft | 14 kts | 153° |
| 2026-04-26 13:23 | 60.31312 | 24.97878 | 161 ft | 16 kts | 152° |
| 2026-04-26 13:23 | 60.31243 | 24.97950 | 161 ft | 17 kts | 152° |
| 2026-04-26 13:23 | 60.31131 | 24.98066 | 161 ft | 19 kts | 153° |
| 2026-04-26 13:23 | 60.31027 | 24.98170 | 161 ft | 11 kts | 153° |
| 2026-04-26 13:24 | 60.30981 | 24.98233 | 161 ft | 13 kts | 125° |
| 2026-04-26 13:24 | 60.30999 | 24.98409 | 157 ft | 15 kts | 62° |
| 2026-04-26 13:24 | 60.31049 | 24.98479 | 156 ft | 8 kts | 341° |
| 2026-04-26 13:24 | 60.31066 | 24.98462 | 156 ft | 0 kts | 333° |
| 2026-04-26 13:25 | 60.31071 | 24.98457 | 156 ft | 6 kts | 333° |
| 2026-04-26 13:25 | 60.31300 | 24.98221 | 156 ft | 68 kts | 333° |
| 2026-04-26 13:25 | 60.31889 | 24.97616 | 153 ft | 119 kts | 333° |
| 2026-04-26 13:26 | 60.32740 | 24.96761 | 351 ft | 141 kts | 333° |
| 2026-04-26 13:26 | 60.33562 | 24.95915 | 1152 ft | 130 kts | 331° |
| 2026-04-26 13:26 | 60.34259 | 24.94743 | 1618 ft | 141 kts | 319° |
| 2026-04-26 13:26 | 60.34901 | 24.92937 | 1802 ft | 169 kts | 304° |
| 2026-04-26 13:27 | 60.35299 | 24.90498 | 2086 ft | 198 kts | 286° |
| 2026-04-26 13:27 | 60.35264 | 24.87554 | 2371 ft | 232 kts | 265° |
| 2026-04-26 13:27 | 60.34593 | 24.84360 | 2866 ft | 259 kts | 248° |
| 2026-04-26 13:27 | 60.33716 | 24.81135 | 3631 ft | 264 kts | 249° |
| 2026-04-26 13:28 | 60.32833 | 24.77848 | 4485 ft | 267 kts | 249° |
| 2026-04-26 13:28 | 60.31946 | 24.74531 | 5353 ft | 270 kts | 250° |
| 2026-04-26 13:28 | 60.31048 | 24.71174 | 6221 ft | 275 kts | 248° |
| 2026-04-26 13:28 | 60.29844 | 24.68072 | 6994 ft | 289 kts | 228° |
| 2026-04-26 13:29 | 60.28133 | 24.65828 | 7790 ft | 301 kts | 206° |
| 2026-04-26 13:29 | 60.26095 | 24.64748 | 8612 ft | 305 kts | 193° |
| 2026-04-26 13:29 | 60.24004 | 24.63973 | 9458 ft | 306 kts | 193° |
| 2026-04-26 13:29 | 60.21894 | 24.63181 | 10024 ft | 316 kts | 194° |
| 2026-04-26 13:30 | 60.19658 | 24.62321 | 10178 ft | 338 kts | 194° |
| 2026-04-26 13:30 | 60.17294 | 24.61406 | 10537 ft | 351 kts | 193° |
| 2026-04-26 13:30 | 60.14870 | 24.60474 | 11145 ft | 356 kts | 193° |
| 2026-04-26 13:30 | 60.12423 | 24.59541 | 11785 ft | 360 kts | 193° |
| 2026-04-26 13:31 | 60.09947 | 24.58596 | 12450 ft | 364 kts | 193° |
| 2026-04-26 13:31 | 60.07419 | 24.57986 | 13077 ft | 369 kts | 182° |
| 2026-04-26 13:31 | 60.04840 | 24.58345 | 13719 ft | 373 kts | 170° |
| 2026-04-26 13:31 | 60.02285 | 24.59383 | 14287 ft | 376 kts | 168° |
| 2026-04-26 13:32 | 59.99747 | 24.60422 | 15121 ft | 370 kts | 169° |
| 2026-04-26 13:32 | 59.97228 | 24.61439 | 15801 ft | 369 kts | 169° |
| 2026-04-26 13:32 | 59.94707 | 24.62448 | 16409 ft | 370 kts | 169° |
| 2026-04-26 13:32 | 59.92202 | 24.63447 | 17001 ft | 372 kts | 169° |
| 2026-04-26 13:33 | 59.89657 | 24.64460 | 17550 ft | 375 kts | 170° |
| 2026-04-26 13:33 | 59.87089 | 24.65459 | 18106 ft | 377 kts | 172° |
| 2026-04-26 13:33 | 59.84470 | 24.65841 | 18552 ft | 380 kts | 184° |
| 2026-04-26 13:33 | 59.81826 | 24.65286 | 18916 ft | 383 kts | 195° |
| 2026-04-26 13:34 | 59.79231 | 24.64039 | 19421 ft | 385 kts | 197° |
| 2026-04-26 13:34 | 59.76608 | 24.62773 | 19841 ft | 391 kts | 197° |
| 2026-04-26 13:34 | 59.73953 | 24.61518 | 20344 ft | 393 kts | 195° |
| 2026-04-26 13:34 | 59.72186 | 24.60692 | 20702 ft | 395 kts | 196° |
| 2026-04-26 13:35 | 59.68585 | 24.59024 | 21345 ft | 399 kts | 195° |
| 2026-04-26 13:35 | 59.65865 | 24.57784 | 21804 ft | 403 kts | 195° |
| 2026-04-26 13:35 | 59.63108 | 24.56621 | 22231 ft | 407 kts | 194° |
| 2026-04-26 13:35 | 59.60317 | 24.55520 | 22652 ft | 411 kts | 193° |
| 2026-04-26 13:36 | 59.57479 | 24.54432 | 22933 ft | 419 kts | 193° |
| 2026-04-26 13:36 | 59.54603 | 24.53342 | 23320 ft | 423 kts | 193° |
| 2026-04-26 13:36 | 59.51696 | 24.52234 | 23656 ft | 427 kts | 194° |
| 2026-04-26 13:36 | 59.48764 | 24.51103 | 23976 ft | 431 kts | 194° |
| 2026-04-26 13:37 | 59.45814 | 24.49953 | 24312 ft | 434 kts | 194° |
| 2026-04-26 13:37 | 59.42839 | 24.48781 | 24633 ft | 438 kts | 194° |
| 2026-04-26 13:37 | 59.39841 | 24.47594 | 24949 ft | 441 kts | 194° |
| 2026-04-26 13:37 | 59.36820 | 24.46401 | 25260 ft | 444 kts | 194° |
| 2026-04-26 13:38 | 59.33781 | 24.45207 | 25568 ft | 448 kts | 194° |
| 2026-04-26 13:38 | 59.30711 | 24.44009 | 25873 ft | 451 kts | 194° |
| 2026-04-26 13:38 | 59.27617 | 24.42811 | 26167 ft | 454 kts | 194° |
| 2026-04-26 13:38 | 59.24508 | 24.41608 | 26470 ft | 458 kts | 194° |
| 2026-04-26 13:39 | 59.21373 | 24.40395 | 26760 ft | 461 kts | 194° |
| 2026-04-26 13:39 | 59.18214 | 24.39180 | 27051 ft | 464 kts | 194° |
| 2026-04-26 13:39 | 59.15076 | 24.37976 | 27359 ft | 467 kts | 194° |
| 2026-04-26 13:39 | 59.11881 | 24.36750 | 27688 ft | 469 kts | 194° |
| 2026-04-26 13:40 | 59.08679 | 24.35522 | 28117 ft | 469 kts | 194° |
| 2026-04-26 13:40 | 59.05473 | 24.34291 | 28430 ft | 471 kts | 194° |
| 2026-04-26 13:40 | 59.02245 | 24.33052 | 28664 ft | 475 kts | 194° |
| 2026-04-26 13:40 | 58.98984 | 24.31801 | 28857 ft | 480 kts | 194° |
| 2026-04-26 13:41 | 58.95700 | 24.30543 | 29127 ft | 483 kts | 194° |
| 2026-04-26 13:41 | 58.92397 | 24.29285 | 29510 ft | 484 kts | 194° |
| 2026-04-26 13:41 | 58.89090 | 24.28032 | 29895 ft | 485 kts | 194° |
| 2026-04-26 13:41 | 58.85776 | 24.26780 | 30217 ft | 485 kts | 194° |
| 2026-04-26 13:42 | 58.82461 | 24.25534 | 30559 ft | 485 kts | 194° |
| 2026-04-26 13:42 | 58.79156 | 24.24289 | 30923 ft | 484 kts | 194° |
| 2026-04-26 13:42 | 58.75853 | 24.23043 | 31289 ft | 483 kts | 194° |
| 2026-04-26 13:42 | 58.72549 | 24.21800 | 31571 ft | 484 kts | 194° |
| 2026-04-26 13:43 | 58.69234 | 24.20555 | 31895 ft | 485 kts | 194° |
| 2026-04-26 13:43 | 58.65922 | 24.19313 | 32244 ft | 485 kts | 194° |
| 2026-04-26 13:43 | 58.62618 | 24.18074 | 32612 ft | 484 kts | 194° |
| 2026-04-26 13:43 | 58.59309 | 24.16840 | 32995 ft | 483 kts | 194° |
| 2026-04-26 13:44 | 58.56016 | 24.15616 | 33388 ft | 482 kts | 194° |
| 2026-04-26 13:44 | 58.52723 | 24.14394 | 33765 ft | 481 kts | 194° |
| 2026-04-26 13:44 | 58.49441 | 24.13180 | 34079 ft | 480 kts | 194° |
| 2026-04-26 13:44 | 58.46164 | 24.11969 | 34344 ft | 479 kts | 194° |
| 2026-04-26 13:45 | 58.42881 | 24.10752 | 34564 ft | 480 kts | 194° |
| 2026-04-26 13:45 | 58.39605 | 24.09535 | 34795 ft | 480 kts | 194° |
| 2026-04-26 13:45 | 58.36322 | 24.08323 | 35047 ft | 480 kts | 194° |
| 2026-04-26 13:45 | 58.33043 | 24.07120 | 35310 ft | 479 kts | 194° |
| 2026-04-26 13:46 | 58.29777 | 24.05922 | 35557 ft | 478 kts | 194° |
| 2026-04-26 13:46 | 58.26511 | 24.04723 | 35786 ft | 478 kts | 194° |
| 2026-04-26 13:46 | 58.23240 | 24.03526 | 35877 ft | 480 kts | 194° |
| 2026-04-26 13:47 | 58.16640 | 24.01111 | 35881 ft | 486 kts | 194° |
| 2026-04-26 13:47 | 58.09975 | 23.98696 | 35898 ft | 488 kts | 194° |
| 2026-04-26 13:48 | 58.03352 | 23.96311 | 35905 ft | 488 kts | 194° |
| 2026-04-26 13:48 | 57.96711 | 23.93907 | 35901 ft | 485 kts | 194° |
| 2026-04-26 13:49 | 57.90078 | 23.91518 | 35893 ft | 485 kts | 194° |
| 2026-04-26 13:49 | 57.83430 | 23.89246 | 35891 ft | 486 kts | 193° |
| 2026-04-26 13:50 | 57.76759 | 23.87090 | 35902 ft | 487 kts | 193° |
| 2026-04-26 13:50 | 57.70078 | 23.84931 | 35918 ft | 487 kts | 193° |
| 2026-04-26 13:51 | 57.63390 | 23.82750 | 35907 ft | 487 kts | 193° |
| 2026-04-26 13:51 | 57.56705 | 23.80561 | 35902 ft | 488 kts | 193° |
| 2026-04-26 13:52 | 57.50006 | 23.78386 | 35897 ft | 489 kts | 193° |
| 2026-04-26 13:52 | 57.43337 | 23.76223 | 35909 ft | 489 kts | 193° |
| 2026-04-26 13:53 | 57.36623 | 23.74060 | 35914 ft | 490 kts | 193° |
| 2026-04-26 13:53 | 57.29910 | 23.71899 | 35896 ft | 490 kts | 193° |
| 2026-04-26 13:54 | 57.23180 | 23.69749 | 35902 ft | 491 kts | 194° |
| 2026-04-26 13:54 | 57.16445 | 23.67593 | 35911 ft | 491 kts | 193° |
| 2026-04-26 13:55 | 57.07482 | 23.64753 | 35923 ft | 491 kts | 193° |
| 2026-04-26 13:56 | 56.96229 | 23.61207 | 35920 ft | 492 kts | 194° |
| 2026-04-26 13:56 | 56.89474 | 23.59084 | 35933 ft | 493 kts | 194° |
| 2026-04-26 13:57 | 56.82712 | 23.56967 | 35936 ft | 493 kts | 194° |
| 2026-04-26 13:57 | 56.75991 | 23.54875 | 35905 ft | 494 kts | 194° |
| 2026-04-26 13:58 | 56.69206 | 23.52757 | 35922 ft | 495 kts | 194° |
| 2026-04-26 13:58 | 56.62410 | 23.50645 | 35927 ft | 496 kts | 194° |
| 2026-04-26 13:59 | 56.55607 | 23.48549 | 35944 ft | 496 kts | 194° |
| 2026-04-26 13:59 | 56.48796 | 23.46467 | 35952 ft | 497 kts | 194° |
| 2026-04-26 14:00 | 56.35147 | 23.42338 | 35986 ft | 498 kts | 193° |
| 2026-04-26 14:01 | 56.28256 | 23.40849 | 35990 ft | 500 kts | 189° |
| 2026-04-26 14:01 | 56.21321 | 23.39748 | 35967 ft | 500 kts | 189° |
| 2026-04-26 14:02 | 56.14431 | 23.38603 | 35972 ft | 500 kts | 190° |
| 2026-04-26 14:02 | 56.07503 | 23.37312 | 36011 ft | 500 kts | 190° |
| 2026-04-26 14:03 | 56.00589 | 23.35980 | 36001 ft | 500 kts | 190° |
| 2026-04-26 14:03 | 55.93678 | 23.34695 | 35964 ft | 500 kts | 190° |
| 2026-04-26 14:04 | 55.86763 | 23.33435 | 35969 ft | 500 kts | 190° |
| 2026-04-26 14:04 | 55.79841 | 23.32179 | 35976 ft | 500 kts | 190° |
| 2026-04-26 14:05 | 55.72911 | 23.30912 | 35984 ft | 500 kts | 190° |
| 2026-04-26 14:05 | 55.65976 | 23.29650 | 35963 ft | 501 kts | 191° |
| 2026-04-26 14:06 | 55.59036 | 23.28389 | 35987 ft | 502 kts | 191° |
| 2026-04-26 14:06 | 55.52093 | 23.27132 | 36000 ft | 502 kts | 191° |
| 2026-04-26 14:07 | 55.45143 | 23.25874 | 36015 ft | 502 kts | 191° |
| 2026-04-26 14:07 | 55.38189 | 23.24638 | 35977 ft | 502 kts | 191° |
| 2026-04-26 14:08 | 55.31271 | 23.23413 | 36001 ft | 503 kts | 191° |
| 2026-04-26 14:08 | 55.24301 | 23.22177 | 36058 ft | 504 kts | 191° |
| 2026-04-26 14:09 | 55.17337 | 23.20933 | 36043 ft | 503 kts | 191° |
| 2026-04-26 14:09 | 55.10365 | 23.19690 | 35999 ft | 503 kts | 191° |
| 2026-04-26 14:10 | 55.03381 | 23.18461 | 36013 ft | 504 kts | 191° |
| 2026-04-26 14:10 | 54.96397 | 23.17245 | 36021 ft | 504 kts | 191° |
| 2026-04-26 14:11 | 54.85913 | 23.15415 | 35993 ft | 504 kts | 191° |
| 2026-04-26 14:11 | 54.78932 | 23.14193 | 36001 ft | 505 kts | 191° |
| 2026-04-26 14:12 | 54.73117 | 23.13181 | 36012 ft | 505 kts | 191° |
| 2026-04-26 14:12 | 54.64988 | 23.11788 | 36035 ft | 505 kts | 191° |
| 2026-04-26 14:13 | 54.55623 | 23.10174 | 36022 ft | 505 kts | 192° |
| 2026-04-26 14:14 | 54.48676 | 23.08969 | 36051 ft | 505 kts | 192° |
| 2026-04-26 14:14 | 54.41678 | 23.07769 | 36067 ft | 505 kts | 191° |
| 2026-04-26 14:15 | 54.34692 | 23.06584 | 36066 ft | 505 kts | 191° |
| 2026-04-26 14:15 | 54.27724 | 23.05243 | 36043 ft | 502 kts | 195° |
| 2026-04-26 14:16 | 54.20888 | 23.03114 | 36061 ft | 498 kts | 198° |
| 2026-04-26 14:16 | 54.14117 | 23.00676 | 36073 ft | 498 kts | 198° |
| 2026-04-26 14:17 | 54.07316 | 22.98380 | 36026 ft | 499 kts | 198° |
| 2026-04-26 14:17 | 54.00485 | 22.96260 | 36049 ft | 499 kts | 197° |
| 2026-04-26 14:18 | 53.93649 | 22.94172 | 36061 ft | 499 kts | 197° |
| 2026-04-26 14:18 | 53.86824 | 22.92038 | 36074 ft | 499 kts | 198° |
| 2026-04-26 14:19 | 53.79999 | 22.89881 | 36081 ft | 499 kts | 198° |
| 2026-04-26 14:19 | 53.73180 | 22.87749 | 36084 ft | 499 kts | 198° |
| 2026-04-26 14:20 | 53.66353 | 22.85643 | 36077 ft | 499 kts | 197° |
| 2026-04-26 14:20 | 53.59532 | 22.83533 | 36078 ft | 499 kts | 198° |
| 2026-04-26 14:21 | 53.52705 | 22.81427 | 36056 ft | 498 kts | 198° |
| 2026-04-26 14:21 | 53.45881 | 22.79339 | 36106 ft | 499 kts | 198° |
| 2026-04-26 14:22 | 53.39054 | 22.77244 | 36100 ft | 498 kts | 198° |
| 2026-04-26 14:22 | 53.32274 | 22.75172 | 36042 ft | 498 kts | 198° |
| 2026-04-26 14:23 | 53.25407 | 22.73073 | 36075 ft | 498 kts | 198° |
| 2026-04-26 14:23 | 53.18623 | 22.71015 | 36089 ft | 498 kts | 198° |
| 2026-04-26 14:24 | 53.11801 | 22.68955 | 36100 ft | 498 kts | 198° |
| 2026-04-26 14:24 | 53.04978 | 22.66903 | 36063 ft | 498 kts | 198° |
| 2026-04-26 14:25 | 52.98156 | 22.64850 | 36093 ft | 498 kts | 198° |
| 2026-04-26 14:25 | 52.91337 | 22.62803 | 36097 ft | 498 kts | 198° |
| 2026-04-26 14:26 | 52.84510 | 22.60771 | 36115 ft | 498 kts | 198° |
| 2026-04-26 14:26 | 52.77688 | 22.58750 | 36085 ft | 498 kts | 198° |
| 2026-04-26 14:27 | 52.70868 | 22.56717 | 36105 ft | 498 kts | 198° |
| 2026-04-26 14:27 | 52.64048 | 22.54686 | 36120 ft | 498 kts | 198° |
| 2026-04-26 14:28 | 52.57195 | 22.52808 | 36075 ft | 501 kts | 196° |
| 2026-04-26 14:28 | 52.50261 | 22.51389 | 36114 ft | 503 kts | 194° |
| 2026-04-26 14:29 | 52.43308 | 22.50102 | 36121 ft | 503 kts | 194° |
| 2026-04-26 14:29 | 52.36366 | 22.48727 | 36133 ft | 502 kts | 195° |
| 2026-04-26 14:30 | 52.29446 | 22.47253 | 36090 ft | 501 kts | 196° |
| 2026-04-26 14:30 | 52.22524 | 22.45774 | 36109 ft | 502 kts | 195° |
| 2026-04-26 14:31 | 52.15601 | 22.44334 | 36121 ft | 502 kts | 195° |
| 2026-04-26 14:31 | 52.08720 | 22.42923 | 36126 ft | 501 kts | 195° |
| 2026-04-26 14:32 | 52.01796 | 22.41494 | 36110 ft | 501 kts | 196° |
| 2026-04-26 14:32 | 51.94881 | 22.40070 | 36133 ft | 500 kts | 196° |
| 2026-04-26 14:33 | 51.87969 | 22.38647 | 36135 ft | 500 kts | 196° |
| 2026-04-26 14:33 | 51.81063 | 22.37253 | 36102 ft | 500 kts | 196° |
| 2026-04-26 14:34 | 51.74170 | 22.35869 | 36141 ft | 498 kts | 196° |
| 2026-04-26 14:34 | 51.67307 | 22.34483 | 36126 ft | 496 kts | 196° |
| 2026-04-26 14:35 | 51.60457 | 22.33087 | 36120 ft | 496 kts | 196° |
| 2026-04-26 14:35 | 51.53614 | 22.31711 | 36114 ft | 495 kts | 197° |
| 2026-04-26 14:36 | 51.46820 | 22.30348 | 36133 ft | 495 kts | 197° |
| 2026-04-26 14:36 | 51.39975 | 22.28979 | 36145 ft | 495 kts | 197° |
| 2026-04-26 14:37 | 51.33142 | 22.27615 | 36156 ft | 495 kts | 196° |
| 2026-04-26 14:37 | 51.26304 | 22.26259 | 36166 ft | 495 kts | 196° |
| 2026-04-26 14:38 | 51.19472 | 22.24905 | 36149 ft | 495 kts | 197° |
| 2026-04-26 14:38 | 51.12638 | 22.23547 | 36151 ft | 494 kts | 197° |
| 2026-04-26 14:39 | 51.05861 | 22.22214 | 36133 ft | 493 kts | 197° |
| 2026-04-26 14:39 | 50.99054 | 22.20885 | 36168 ft | 493 kts | 197° |
| 2026-04-26 14:40 | 50.92252 | 22.19549 | 36196 ft | 492 kts | 197° |
| 2026-04-26 14:40 | 50.85467 | 22.18211 | 36109 ft | 490 kts | 197° |
| 2026-04-26 14:41 | 50.78691 | 22.16891 | 36152 ft | 490 kts | 197° |
| 2026-04-26 14:41 | 50.71921 | 22.15570 | 36164 ft | 490 kts | 197° |
| 2026-04-26 14:42 | 50.65144 | 22.14269 | 36170 ft | 490 kts | 197° |
| 2026-04-26 14:42 | 50.58369 | 22.12970 | 36152 ft | 489 kts | 197° |
| 2026-04-26 14:43 | 50.51617 | 22.11671 | 36168 ft | 488 kts | 197° |
| 2026-04-26 14:43 | 50.44879 | 22.10371 | 36174 ft | 487 kts | 197° |
| 2026-04-26 14:44 | 50.38155 | 22.09085 | 36134 ft | 487 kts | 196° |
| 2026-04-26 14:44 | 50.31439 | 22.07797 | 36173 ft | 485 kts | 197° |
| 2026-04-26 14:45 | 50.24739 | 22.06518 | 36180 ft | 485 kts | 196° |
| 2026-04-26 14:45 | 50.18042 | 22.05252 | 36186 ft | 484 kts | 196° |
| 2026-04-26 14:46 | 50.11360 | 22.03985 | 36181 ft | 483 kts | 197° |
| 2026-04-26 14:46 | 50.04694 | 22.02721 | 36188 ft | 483 kts | 196° |
| 2026-04-26 14:47 | 49.98022 | 22.01465 | 36188 ft | 482 kts | 196° |
| 2026-04-26 14:47 | 49.91364 | 22.00213 | 36130 ft | 481 kts | 196° |
| 2026-04-26 14:48 | 49.84725 | 21.98980 | 36173 ft | 479 kts | 196° |
| 2026-04-26 14:48 | 49.78109 | 21.97748 | 36182 ft | 478 kts | 196° |
| 2026-04-26 14:49 | 49.71557 | 21.96529 | 36186 ft | 477 kts | 196° |
| 2026-04-26 14:49 | 49.64978 | 21.95303 | 36159 ft | 475 kts | 195° |
| 2026-04-26 14:50 | 49.58429 | 21.94091 | 36179 ft | 473 kts | 195° |
| 2026-04-26 14:50 | 49.51897 | 21.92882 | 36183 ft | 472 kts | 195° |
| 2026-04-26 14:51 | 49.45381 | 21.91685 | 36148 ft | 471 kts | 195° |
| 2026-04-26 14:51 | 49.38891 | 21.90499 | 36179 ft | 469 kts | 195° |
| 2026-04-26 14:52 | 49.32419 | 21.89299 | 36199 ft | 468 kts | 196° |
| 2026-04-26 14:52 | 49.25951 | 21.88116 | 36186 ft | 468 kts | 195° |
| 2026-04-26 14:53 | 49.19483 | 21.86945 | 36155 ft | 467 kts | 195° |
| 2026-04-26 14:53 | 49.13033 | 21.85768 | 36170 ft | 467 kts | 195° |
| 2026-04-26 14:54 | 49.06583 | 21.84602 | 36169 ft | 466 kts | 195° |
| 2026-04-26 14:54 | 49.00143 | 21.83448 | 36170 ft | 466 kts | 195° |
| 2026-04-26 14:55 | 48.93711 | 21.82294 | 36167 ft | 465 kts | 195° |
| 2026-04-26 14:55 | 48.87174 | 21.82016 | 36167 ft | 480 kts | 180° |
| 2026-04-26 14:56 | 48.80583 | 21.83506 | 36158 ft | 483 kts | 178° |
| 2026-04-26 14:56 | 48.73897 | 21.85042 | 36130 ft | 483 kts | 178° |
| 2026-04-26 14:57 | 48.67298 | 21.86529 | 36146 ft | 483 kts | 178° |
| 2026-04-26 14:57 | 48.60656 | 21.88013 | 36150 ft | 483 kts | 178° |
| 2026-04-26 14:58 | 48.54014 | 21.89507 | 36161 ft | 483 kts | 178° |
| 2026-04-26 14:58 | 48.47373 | 21.90996 | 36157 ft | 482 kts | 178° |
| 2026-04-26 14:59 | 48.41822 | 21.92242 | 36168 ft | 481 kts | 178° |
| 2026-04-26 14:59 | 48.34129 | 21.93955 | 36175 ft | 481 kts | 178° |
| 2026-04-26 15:00 | 48.28585 | 21.95196 | 36148 ft | 480 kts | 177° |
| 2026-04-26 15:00 | 48.21992 | 21.96671 | 36165 ft | 479 kts | 178° |
| 2026-04-26 15:01 | 48.15405 | 21.98130 | 36199 ft | 477 kts | 178° |
| 2026-04-26 15:01 | 48.12179 | 21.98848 | 36896 ft | 465 kts | 178° |
| 2026-04-26 15:01 | 48.08969 | 21.99557 | 37096 ft | 467 kts | 178° |
| 2026-04-26 15:02 | 48.02541 | 22.00958 | 37133 ft | 471 kts | 177° |
| 2026-04-26 15:02 | 47.96046 | 22.02380 | 37140 ft | 472 kts | 177° |
| 2026-04-26 15:03 | 47.89557 | 22.03810 | 37138 ft | 472 kts | 177° |
| 2026-04-26 15:03 | 47.83061 | 22.05238 | 37149 ft | 471 kts | 178° |
| 2026-04-26 15:04 | 47.76558 | 22.06643 | 37144 ft | 472 kts | 177° |
| 2026-04-26 15:04 | 47.70063 | 22.08048 | 37139 ft | 472 kts | 177° |
| 2026-04-26 15:05 | 47.63565 | 22.09463 | 37138 ft | 471 kts | 177° |
| 2026-04-26 15:05 | 47.57084 | 22.11025 | 37097 ft | 475 kts | 170° |
| 2026-04-26 15:06 | 47.50774 | 22.13972 | 37134 ft | 474 kts | 166° |
| 2026-04-26 15:06 | 47.44533 | 22.16962 | 37136 ft | 474 kts | 166° |
| 2026-04-26 15:07 | 47.35099 | 22.21454 | 37133 ft | 476 kts | 166° |
| 2026-04-26 15:07 | 47.28818 | 22.24431 | 37137 ft | 472 kts | 166° |
| 2026-04-26 15:08 | 47.22577 | 22.27385 | 37130 ft | 470 kts | 166° |
| 2026-04-26 15:08 | 47.16347 | 22.30323 | 37130 ft | 470 kts | 167° |
| 2026-04-26 15:09 | 47.10124 | 22.33250 | 37128 ft | 470 kts | 166° |
| 2026-04-26 15:09 | 47.03916 | 22.36173 | 37127 ft | 466 kts | 167° |
| 2026-04-26 15:10 | 46.98785 | 22.38587 | 37125 ft | 465 kts | 167° |
| 2026-04-26 15:10 | 46.91580 | 22.41951 | 37119 ft | 465 kts | 167° |
| 2026-04-26 15:11 | 46.85419 | 22.44828 | 37117 ft | 465 kts | 167° |
| 2026-04-26 15:11 | 46.79317 | 22.47673 | 37116 ft | 462 kts | 167° |
| 2026-04-26 15:12 | 46.73203 | 22.50516 | 37109 ft | 461 kts | 167° |
| 2026-04-26 15:12 | 46.67096 | 22.53344 | 37110 ft | 461 kts | 167° |
| 2026-04-26 15:13 | 46.60986 | 22.56163 | 37104 ft | 460 kts | 167° |
| 2026-04-26 15:13 | 46.54879 | 22.58985 | 37098 ft | 460 kts | 167° |
| 2026-04-26 15:14 | 46.48772 | 22.61802 | 37096 ft | 460 kts | 167° |
| 2026-04-26 15:14 | 46.42663 | 22.64608 | 37087 ft | 460 kts | 167° |
| 2026-04-26 15:15 | 46.36542 | 22.67402 | 37093 ft | 461 kts | 167° |
| 2026-04-26 15:15 | 46.30433 | 22.70191 | 37079 ft | 460 kts | 166° |
| 2026-04-26 15:16 | 46.24333 | 22.72976 | 37076 ft | 459 kts | 167° |
| 2026-04-26 15:16 | 46.18232 | 22.75744 | 37070 ft | 459 kts | 167° |
| 2026-04-26 15:17 | 46.13165 | 22.78043 | 37067 ft | 459 kts | 167° |
| 2026-04-26 15:17 | 46.06088 | 22.81244 | 37069 ft | 458 kts | 167° |
| 2026-04-26 15:18 | 45.99999 | 22.83984 | 37065 ft | 459 kts | 167° |
| 2026-04-26 15:18 | 45.93903 | 22.86736 | 37055 ft | 459 kts | 167° |
| 2026-04-26 15:19 | 45.87803 | 22.89485 | 37029 ft | 459 kts | 166° |
| 2026-04-26 15:19 | 45.81714 | 22.92221 | 37053 ft | 458 kts | 166° |
| 2026-04-26 15:20 | 45.75628 | 22.94940 | 37051 ft | 458 kts | 166° |
| 2026-04-26 15:20 | 45.69594 | 22.97636 | 37050 ft | 457 kts | 166° |
| 2026-04-26 15:21 | 45.63469 | 23.00363 | 37028 ft | 456 kts | 166° |
| 2026-04-26 15:21 | 45.57420 | 23.03050 | 37042 ft | 455 kts | 166° |
| 2026-04-26 15:22 | 45.51376 | 23.05727 | 37035 ft | 455 kts | 166° |
| 2026-04-26 15:22 | 45.45332 | 23.08403 | 37030 ft | 455 kts | 166° |
| 2026-04-26 15:23 | 45.39276 | 23.11072 | 37013 ft | 458 kts | 166° |
| 2026-04-26 15:23 | 45.33130 | 23.13763 | 37017 ft | 465 kts | 165° |
| 2026-04-26 15:24 | 45.26938 | 23.16496 | 37005 ft | 466 kts | 165° |
| 2026-04-26 15:24 | 45.20796 | 23.19202 | 37004 ft | 465 kts | 165° |
| 2026-04-26 15:25 | 45.15622 | 23.21470 | 36990 ft | 463 kts | 165° |
| 2026-04-26 15:25 | 45.08478 | 23.24590 | 36991 ft | 461 kts | 165° |
| 2026-04-26 15:26 | 45.02342 | 23.27260 | 36980 ft | 461 kts | 165° |
| 2026-04-26 15:26 | 44.96207 | 23.29920 | 36981 ft | 461 kts | 165° |
| 2026-04-26 15:27 | 44.90093 | 23.32561 | 36985 ft | 458 kts | 165° |
| 2026-04-26 15:27 | 44.84017 | 23.35198 | 36988 ft | 457 kts | 165° |
| 2026-04-26 15:28 | 44.77946 | 23.37829 | 36995 ft | 456 kts | 165° |
| 2026-04-26 15:28 | 44.71859 | 23.40448 | 36967 ft | 458 kts | 165° |
| 2026-04-26 15:29 | 44.65820 | 23.43036 | 36992 ft | 455 kts | 165° |
| 2026-04-26 15:30 | 44.53736 | 23.48207 | 36998 ft | 454 kts | 165° |
| 2026-04-26 15:30 | 44.47689 | 23.50791 | 36972 ft | 454 kts | 166° |
| 2026-04-26 15:31 | 44.38632 | 23.54653 | 36969 ft | 453 kts | 165° |
| 2026-04-26 15:32 | 44.30605 | 23.58062 | 36964 ft | 453 kts | 166° |
| 2026-04-26 15:32 | 44.23527 | 23.61044 | 36971 ft | 455 kts | 166° |
| 2026-04-26 15:33 | 44.20494 | 23.62323 | 36495 ft | 458 kts | 166° |
| 2026-04-26 15:33 | 44.17397 | 23.63626 | 35374 ft | 470 kts | 165° |
| 2026-04-26 15:33 | 44.14292 | 23.64940 | 35146 ft | 460 kts | 165° |
| 2026-04-26 15:33 | 44.11269 | 23.66225 | 35038 ft | 449 kts | 165° |
| 2026-04-26 15:34 | 44.08324 | 23.67474 | 34938 ft | 437 kts | 165° |
| 2026-04-26 15:34 | 44.05454 | 23.68684 | 34843 ft | 426 kts | 165° |
| 2026-04-26 15:34 | 44.02651 | 23.69859 | 34739 ft | 416 kts | 166° |
| 2026-04-26 15:34 | 43.99890 | 23.71011 | 34643 ft | 415 kts | 166° |
| 2026-04-26 15:35 | 43.94336 | 23.73319 | 34479 ft | 416 kts | 165° |
| 2026-04-26 15:35 | 43.91563 | 23.74476 | 34146 ft | 416 kts | 165° |
| 2026-04-26 15:35 | 43.88833 | 23.75620 | 33640 ft | 416 kts | 165° |
| 2026-04-26 15:36 | 43.86073 | 23.76777 | 33197 ft | 414 kts | 165° |
| 2026-04-26 15:36 | 43.83314 | 23.77929 | 32744 ft | 413 kts | 165° |
| 2026-04-26 15:36 | 43.80564 | 23.79078 | 32288 ft | 413 kts | 165° |
| 2026-04-26 15:36 | 43.77836 | 23.80330 | 31841 ft | 413 kts | 158° |
| 2026-04-26 15:37 | 43.75212 | 23.81942 | 31415 ft | 413 kts | 156° |
| 2026-04-26 15:37 | 43.72589 | 23.83567 | 30982 ft | 413 kts | 156° |
| 2026-04-26 15:37 | 43.69966 | 23.85184 | 30569 ft | 413 kts | 156° |
| 2026-04-26 15:37 | 43.67345 | 23.86791 | 30157 ft | 413 kts | 156° |
| 2026-04-26 15:38 | 43.64721 | 23.88399 | 29682 ft | 413 kts | 156° |
| 2026-04-26 15:38 | 43.62101 | 23.90007 | 29290 ft | 411 kts | 156° |
| 2026-04-26 15:38 | 43.59494 | 23.91607 | 28884 ft | 409 kts | 156° |
| 2026-04-26 15:38 | 43.56903 | 23.93199 | 28504 ft | 407 kts | 156° |
| 2026-04-26 15:39 | 43.54320 | 23.94788 | 28107 ft | 405 kts | 156° |
| 2026-04-26 15:39 | 43.51753 | 23.96366 | 27716 ft | 403 kts | 156° |
| 2026-04-26 15:39 | 43.49195 | 23.97935 | 27332 ft | 402 kts | 156° |
| 2026-04-26 15:39 | 43.48368 | 23.98441 | 27205 ft | 401 kts | 156° |
| 2026-04-26 15:40 | 43.44109 | 24.01048 | 26539 ft | 398 kts | 156° |
| 2026-04-26 15:40 | 43.41580 | 24.02593 | 26149 ft | 397 kts | 156° |
| 2026-04-26 15:40 | 43.39063 | 24.04130 | 25750 ft | 395 kts | 156° |
| 2026-04-26 15:40 | 43.36547 | 24.05663 | 25319 ft | 395 kts | 156° |
| 2026-04-26 15:41 | 43.34042 | 24.07188 | 24904 ft | 394 kts | 156° |
| 2026-04-26 15:41 | 43.31536 | 24.08711 | 24471 ft | 393 kts | 156° |
| 2026-04-26 15:41 | 43.29036 | 24.10229 | 24043 ft | 393 kts | 156° |
| 2026-04-26 15:41 | 43.26564 | 24.11728 | 23604 ft | 393 kts | 156° |
| 2026-04-26 15:42 | 43.24057 | 24.13250 | 23104 ft | 393 kts | 156° |
| 2026-04-26 15:42 | 43.21565 | 24.14761 | 22667 ft | 390 kts | 156° |
| 2026-04-26 15:42 | 43.19089 | 24.16258 | 22224 ft | 388 kts | 156° |
| 2026-04-26 15:42 | 43.16626 | 24.17748 | 21774 ft | 386 kts | 156° |
| 2026-04-26 15:43 | 43.14130 | 24.19049 | 21334 ft | 383 kts | 168° |
| 2026-04-26 15:43 | 43.11505 | 24.19380 | 20909 ft | 377 kts | 186° |
| 2026-04-26 15:43 | 43.06747 | 24.16975 | 19951 ft | 365 kts | 216° |
| 2026-04-26 15:44 | 43.04494 | 24.15274 | 19293 ft | 374 kts | 207° |
| 2026-04-26 15:44 | 42.99521 | 24.12862 | 18037 ft | 384 kts | 200° |
| 2026-04-26 15:44 | 42.96939 | 24.11833 | 17343 ft | 387 kts | 199° |
| 2026-04-26 15:45 | 42.91768 | 24.09659 | 15962 ft | 390 kts | 201° |
| 2026-04-26 15:45 | 42.89187 | 24.08465 | 15261 ft | 392 kts | 202° |
| 2026-04-26 15:46 | 42.84032 | 24.05955 | 13921 ft | 394 kts | 204° |
| 2026-04-26 15:46 | 42.81450 | 24.04681 | 13193 ft | 395 kts | 203° |
| 2026-04-26 15:46 | 42.78900 | 24.03433 | 12475 ft | 395 kts | 203° |
| 2026-04-26 15:46 | 42.78025 | 24.03008 | 12229 ft | 394 kts | 203° |
| 2026-04-26 15:47 | 42.73745 | 24.00952 | 11192 ft | 388 kts | 203° |
| 2026-04-26 15:47 | 42.69108 | 23.98507 | 10891 ft | 324 kts | 218° |
| 2026-04-26 15:47 | 42.67519 | 23.96513 | 10337 ft | 306 kts | 239° |
| 2026-04-26 15:48 | 42.66658 | 23.93938 | 9546 ft | 297 kts | 261° |
| 2026-04-26 15:48 | 42.66513 | 23.92074 | 8981 ft | 293 kts | 274° |
| 2026-04-26 15:48 | 42.66682 | 23.89335 | 8258 ft | 289 kts | 278° |
| 2026-04-26 15:48 | 42.66866 | 23.86606 | 7807 ft | 290 kts | 277° |
| 2026-04-26 15:49 | 42.67036 | 23.83916 | 7383 ft | 290 kts | 277° |
| 2026-04-26 15:49 | 42.67194 | 23.81186 | 6988 ft | 290 kts | 277° |
| 2026-04-26 15:49 | 42.67365 | 23.78459 | 6616 ft | 289 kts | 277° |
| 2026-04-26 15:49 | 42.67539 | 23.75742 | 6243 ft | 288 kts | 277° |
| 2026-04-26 15:50 | 42.67710 | 23.73039 | 5860 ft | 286 kts | 278° |
| 2026-04-26 15:50 | 42.67879 | 23.70357 | 5476 ft | 281 kts | 277° |
| 2026-04-26 15:50 | 42.68040 | 23.67775 | 5115 ft | 267 kts | 278° |
| 2026-04-26 15:50 | 42.68193 | 23.65314 | 4783 ft | 255 kts | 278° |
| 2026-04-26 15:51 | 42.68341 | 23.62965 | 4454 ft | 245 kts | 278° |
| 2026-04-26 15:51 | 42.68481 | 23.60713 | 4137 ft | 232 kts | 278° |
| 2026-04-26 15:51 | 42.68609 | 23.58635 | 3848 ft | 210 kts | 277° |
| 2026-04-26 15:51 | 42.68729 | 23.56709 | 3595 ft | 201 kts | 278° |
| 2026-04-26 15:52 | 42.68843 | 23.54865 | 3352 ft | 195 kts | 277° |
| 2026-04-26 15:52 | 42.68953 | 23.53074 | 3082 ft | 183 kts | 278° |
| 2026-04-26 15:52 | 42.69056 | 23.51400 | 2852 ft | 166 kts | 276° |
| 2026-04-26 15:52 | 42.69116 | 23.50411 | 2708 ft | 153 kts | 277° |
| 2026-04-26 15:53 | 42.69227 | 23.48585 | 2449 ft | 139 kts | 280° |
| 2026-04-26 15:53 | 42.69308 | 23.47276 | 2254 ft | 140 kts | 279° |
| 2026-04-26 15:53 | 42.69391 | 23.45923 | 2088 ft | 144 kts | 278° |
| 2026-04-26 15:53 | 42.69470 | 23.44618 | 1870 ft | 137 kts | 278° |
| 2026-04-26 15:54 | 42.69553 | 23.43316 | 1780 ft | 136 kts | 278° |
| 2026-04-26 15:54 | 42.69630 | 23.42156 | 1749 ft | 91 kts | 274° |
| 2026-04-26 15:54 | 42.69655 | 23.41663 | 1750 ft | 25 kts | 272° |
| 2026-04-26 15:54 | 42.69658 | 23.41590 | 1750 ft | 7 kts | 272° |
| 2026-04-26 15:55 | 42.69665 | 23.41465 | 1750 ft | 18 kts | 278° |
| 2026-04-26 15:55 | 42.69674 | 23.41301 | 1746 ft | 15 kts | 269° |
| 2026-04-26 15:55 | 42.69606 | 23.41225 | 1745 ft | 12 kts | 183° |
| 2026-04-26 15:55 | 42.69547 | 23.41221 | 1742 ft | 9 kts | 184° |
| 2026-04-26 15:56 | 42.69478 | 23.41214 | 1741 ft | 11 kts | 182° |
| 2026-04-26 15:56 | 42.69398 | 23.41200 | 1740 ft | 12 kts | 190° |
| 2026-04-26 15:56 | 42.69308 | 23.41175 | 1744 ft | 14 kts | 192° |
| 2026-04-26 15:56 | 42.69207 | 23.41158 | 1745 ft | 15 kts | 171° |
| 2026-04-26 15:57 | 42.69100 | 23.41203 | 1743 ft | 17 kts | 162° |
| 2026-04-26 15:57 | 42.68999 | 23.41206 | 1748 ft | 16 kts | 221° |
| 2026-04-26 15:57 | 42.68953 | 23.41075 | 1744 ft | 15 kts | 252° |
| 2026-04-26 15:57 | 42.68929 | 23.40979 | 1744 ft | 17 kts | 250° |
| 2026-04-26 15:58 | 42.68926 | 23.40763 | 1747 ft | 19 kts | 287° |
| 2026-04-26 15:58 | 42.68963 | 23.40591 | 1743 ft | 15 kts | 287° |
| 2026-04-26 15:58 | 42.68988 | 23.40483 | 1747 ft | 8 kts | 287° |
| 2026-04-26 15:58 | 42.69017 | 23.40416 | 1745 ft | 9 kts | 345° |
| 2026-04-26 15:59 | 42.69048 | 23.40425 | 1747 ft | 3 kts | 16° |
| 2026-04-26 15:59 | 42.69056 | 23.40429 | 1747 ft | 1 kts | 18° |
| 2026-04-26 15:59 | 42.69060 | 23.40431 | 1747 ft | 0 kts | 19° |